createdAt,value
2023-05-24T00:00:25.156Z,99238.72
2023-05-24T00:02:52.075Z,99240.59
2023-05-24T00:05:19.033Z,99234.09
2023-05-24T00:07:45.980Z,99232.44
2023-05-24T00:10:14.127Z,99231.91
2023-05-24T00:12:40.876Z,99227.81
2023-05-24T00:15:07.953Z,99228.91
2023-05-24T00:17:41.188Z,99216.41
2023-05-24T00:20:12.335Z,99222.91
2023-05-24T00:22:39.428Z,99219.38
2023-05-24T00:25:06.443Z,99222.91
2023-05-24T00:27:33.646Z,99211.78
2023-05-24T00:30:00.560Z,99213.94
2023-05-24T00:32:31.176Z,99210.66
2023-05-24T00:34:58.024Z,99206.31
2023-05-24T00:37:26.488Z,99204.97
2023-05-24T00:39:53.232Z,99201.66
2023-05-24T00:42:20.046Z,99202.19
2023-05-24T00:44:46.828Z,99207.88
2023-05-24T00:47:13.724Z,99198.91
2023-05-24T00:49:40.492Z,99198.91
2023-05-24T00:52:09.003Z,99201.91
2023-05-24T00:54:35.821Z,99199.72
2023-05-24T00:57:02.760Z,99201.38
2023-05-24T00:59:29.561Z,99194.03
2023-05-24T01:01:57.803Z,99193.47
2023-05-24T01:04:26.171Z,99186.44
2023-05-24T01:06:58.157Z,99191.59
2023-05-24T01:09:34.586Z,99188.06
2023-05-24T01:12:13.517Z,99175.56
2023-05-24T01:14:45.794Z,99182.38
2023-05-24T01:17:15.147Z,99180.19
2023-05-24T01:19:44.979Z,99180.72
2023-05-24T01:22:12.209Z,99179.13
2023-05-24T01:24:44.697Z,99185.34
2023-05-24T01:27:14.936Z,99170.97
2023-05-24T01:29:41.709Z,99174.22
2023-05-24T01:32:08.520Z,99179.13
2023-05-24T01:34:35.477Z,99177.50
2023-05-24T01:37:02.831Z,99174.78
2023-05-24T01:39:30.127Z,99175.59
2023-05-24T01:42:24.207Z,99166.63
2023-05-24T01:45:00.231Z,99172.88
2023-05-24T01:47:45.856Z,99158.75
2023-05-24T01:50:27.217Z,99170.16
2023-05-24T01:52:54.017Z,99173.69
2023-05-24T01:55:21.016Z,99174.50
2023-05-24T01:57:48.766Z,99174.50
2023-05-24T02:00:17.174Z,99167.16
2023-05-24T02:02:45.375Z,99172.34
2023-05-24T02:05:12.276Z,99169.06
2023-05-24T02:07:39.144Z,99172.06
2023-05-24T02:10:06.517Z,99170.69
2023-05-24T02:12:33.705Z,99172.59
2023-05-24T02:15:00.604Z,99164.44
2023-05-24T02:17:27.802Z,99164.72
2023-05-24T02:19:55.655Z,99170.16
2023-05-24T02:22:23.368Z,99171.50
2023-05-24T02:24:52.245Z,99162.81
2023-05-24T02:27:19.119Z,99159.56
2023-05-24T02:29:55.408Z,99151.41
2023-05-24T02:32:22.209Z,99159.56
2023-05-24T02:34:49.105Z,99161.47
2023-05-24T02:37:15.938Z,99151.69
2023-05-24T02:39:42.755Z,99152.50
2023-05-24T02:42:11.442Z,99153.56
2023-05-24T02:44:38.403Z,99152.78
2023-05-24T02:47:05.630Z,99153.06
2023-05-24T02:49:32.446Z,99156.28
2023-05-24T02:51:59.529Z,99159.00
2023-05-24T02:54:26.653Z,99159.00
2023-05-24T02:56:53.530Z,99155.78
2023-05-24T02:59:20.704Z,99162.28
2023-05-24T03:01:50.838Z,99148.69
2023-05-24T03:04:17.782Z,99155.72
2023-05-24T03:06:44.769Z,99156.25
2023-05-24T03:09:14.657Z,99160.59
2023-05-24T03:11:41.501Z,99154.31
2023-05-24T03:14:11.104Z,99145.38
2023-05-24T03:16:41.188Z,99134.50
2023-05-24T03:19:09.938Z,99138.31
2023-05-24T03:21:37.898Z,99145.66
2023-05-24T03:24:05.001Z,99140.75
2023-05-24T03:26:32.392Z,99136.69
2023-05-24T03:28:59.240Z,99133.19
2023-05-24T03:31:32.479Z,99129.69
2023-05-24T03:33:59.854Z,99135.41
2023-05-24T03:36:29.298Z,99126.44
2023-05-24T03:38:58.514Z,99127.78
2023-05-24T03:41:27.690Z,99125.91
2023-05-24T03:43:58.789Z,99137.31
2023-05-24T03:46:27.672Z,99128.63
2023-05-24T03:48:55.380Z,99124.81
2023-05-24T03:51:24.548Z,99121.53
2023-05-24T03:53:51.382Z,99125.09
2023-05-24T03:56:18.248Z,99125.59
2023-05-24T03:58:45.000Z,99122.34
2023-05-24T04:01:21.980Z,99125.06
2023-05-24T04:03:57.657Z,99117.16
2023-05-24T04:06:29.442Z,99121.25
2023-05-24T04:08:57.906Z,99117.16
2023-05-24T04:12:01.942Z,99115.22
2023-05-24T04:14:28.699Z,99118.72
2023-05-24T04:16:56.031Z,99120.25
2023-05-24T04:19:23.020Z,99116.66
2023-05-24T04:21:49.911Z,99117.94
2023-05-24T04:24:16.722Z,99117.78
2023-05-24T04:26:44.929Z,99114.91
2023-05-24T04:29:11.822Z,99124.59
2023-05-24T04:31:38.773Z,99119.53
2023-05-24T04:34:07.993Z,99124.03
2023-05-24T04:36:35.702Z,99115.47
2023-05-24T04:39:05.207Z,99124.91
2023-05-24T04:41:32.834Z,99118.28
2023-05-24T04:44:02.267Z,99121.31
2023-05-24T04:46:48.060Z,99121.38
2023-05-24T04:49:14.896Z,99121.16
2023-05-24T04:51:41.844Z,99119.91
2023-05-24T04:54:11.565Z,99121.69
2023-05-24T04:56:38.945Z,99125.28
2023-05-24T04:59:06.490Z,99126.31
2023-05-24T05:01:52.490Z,99134.09
2023-05-24T05:04:19.469Z,99131.50
2023-05-24T05:06:47.737Z,99128.03
2023-05-24T05:09:16.048Z,99133.34
2023-05-24T05:11:42.938Z,99132.81
2023-05-24T05:14:28.394Z,99143.75
2023-05-24T05:16:55.356Z,99148.09
2023-05-24T05:19:22.139Z,99140.22
2023-05-24T05:22:07.724Z,99142.44
2023-05-24T05:24:34.872Z,99138.44
2023-05-24T05:27:01.755Z,99141.59
2023-05-24T05:29:28.780Z,99140.84
2023-05-24T05:32:14.365Z,99135.56
2023-05-24T05:34:41.248Z,99142.31
2023-05-24T05:37:08.021Z,99142.19
2023-05-24T05:39:34.870Z,99142.84
2023-05-24T05:42:02.527Z,99145.31
2023-05-24T05:44:29.269Z,99143.59
2023-05-24T05:46:56.080Z,99137.72
2023-05-24T05:49:23.033Z,99140.69
2023-05-24T05:51:49.799Z,99133.59
2023-05-24T05:54:18.663Z,99133.84
2023-05-24T05:56:48.041Z,99132.53
2023-05-24T05:59:36.330Z,99139.13
2023-05-24T06:02:03.813Z,99122.56
2023-05-24T06:04:30.635Z,99125.91
2023-05-24T06:06:57.482Z,99132.63
2023-05-24T06:09:24.429Z,99133.38
2023-05-24T06:11:51.538Z,99126.78
2023-05-24T06:14:20.015Z,99126.41
2023-05-24T06:16:48.257Z,99120.66
2023-05-24T06:19:16.703Z,99127.66
2023-05-24T06:21:48.088Z,99117.03
2023-05-24T06:24:15.883Z,99123.50
2023-05-24T06:26:43.099Z,99124.03
2023-05-24T06:29:28.377Z,99120.13
2023-05-24T06:31:55.294Z,99126.13
2023-05-24T06:34:22.261Z,99123.63
2023-05-24T06:36:51.248Z,99132.56
2023-05-24T06:39:19.056Z,99134.41
2023-05-24T06:41:47.307Z,99131.00
2023-05-24T06:44:14.572Z,99131.34
2023-05-24T06:46:41.419Z,99124.28
2023-05-24T06:49:08.744Z,99128.47
2023-05-24T06:51:36.188Z,99132.53
2023-05-24T06:54:03.132Z,99120.69
2023-05-24T06:56:29.977Z,99125.28
2023-05-24T06:58:57.073Z,99129.34
2023-05-24T07:01:43.950Z,99124.06
2023-05-24T07:04:11.066Z,99137.53
2023-05-24T07:06:37.855Z,99131.56
2023-05-24T07:09:05.040Z,99124.25
2023-05-24T07:11:32.274Z,99129.59
2023-05-24T07:13:59.207Z,99133.88
2023-05-24T07:16:26.058Z,99137.25
2023-05-24T07:18:52.897Z,99129.16
2023-05-24T07:21:19.647Z,99141.22
2023-05-24T07:23:46.596Z,99137.63
2023-05-24T07:26:13.549Z,99137.84
2023-05-24T07:28:40.611Z,99137.75
2023-05-24T07:31:10.050Z,99132.78
2023-05-24T07:33:38.111Z,99138.00
2023-05-24T07:36:06.082Z,99132.28
2023-05-24T07:38:33.287Z,99138.75
2023-05-24T07:41:00.583Z,99138.50
2023-05-24T07:43:27.551Z,99145.56
2023-05-24T07:45:54.551Z,99151.31
2023-05-24T07:48:24.306Z,99146.75
2023-05-24T07:50:52.204Z,99148.22
2023-05-24T07:53:19.700Z,99156.78
2023-05-24T07:55:46.915Z,99155.81
2023-05-24T07:58:13.692Z,99157.84
2023-05-24T08:00:42.046Z,99156.53
2023-05-24T08:03:09.755Z,99165.19
2023-05-24T08:05:36.743Z,99162.41
2023-05-24T08:08:04.063Z,99157.84
2023-05-24T08:10:31.077Z,99156.31
2023-05-24T08:12:57.978Z,99153.00
2023-05-24T08:15:25.068Z,99159.09
2023-05-24T08:17:52.106Z,99155.16
2023-05-24T08:20:19.146Z,99159.78
2023-05-24T08:22:46.205Z,99164.63
2023-05-24T08:25:12.994Z,99162.88
2023-05-24T08:27:40.096Z,99157.13
2023-05-24T08:30:07.435Z,99156.72
2023-05-24T08:32:34.470Z,99156.94
2023-05-24T08:35:18.618Z,99153.28
2023-05-24T08:37:48.160Z,99148.31
2023-05-24T08:40:16.349Z,99157.06
2023-05-24T08:42:43.192Z,99157.63
2023-05-24T08:45:13.040Z,99149.91
2023-05-24T08:47:40.330Z,99156.22
2023-05-24T08:50:07.498Z,99149.00
2023-05-24T08:52:34.470Z,99152.09
2023-05-24T08:55:01.481Z,99150.47
2023-05-24T08:57:28.631Z,99154.19
2023-05-24T08:59:58.477Z,99154.03
2023-05-24T09:02:25.236Z,99162.31
2023-05-24T09:04:52.621Z,99154.06
2023-05-24T09:07:20.106Z,99154.81
2023-05-24T09:09:48.023Z,99154.75
2023-05-24T09:12:21.783Z,99159.25
2023-05-24T09:14:55.604Z,99160.91
2023-05-24T09:17:22.525Z,99145.16
2023-05-24T09:19:50.257Z,99152.53
2023-05-24T09:22:20.375Z,99159.59
2023-05-24T09:24:47.536Z,99160.63
2023-05-24T09:27:18.000Z,99157.00
2023-05-24T09:29:49.793Z,99164.38
2023-05-24T09:32:16.672Z,99159.03
2023-05-24T09:34:44.011Z,99154.03
2023-05-24T09:37:16.739Z,99152.94
2023-05-24T09:39:47.903Z,99154.28
2023-05-24T09:42:15.530Z,99159.25
2023-05-24T09:44:43.372Z,99157.47
2023-05-24T09:47:10.188Z,99157.78
2023-05-24T09:49:37.199Z,99156.63
2023-05-24T09:52:04.278Z,99164.88
2023-05-24T09:54:34.125Z,99160.38
2023-05-24T09:57:03.428Z,99159.03
2023-05-24T09:59:34.751Z,99160.94
2023-05-24T10:02:10.450Z,99160.75
2023-05-24T10:04:41.445Z,99162.84
2023-05-24T10:07:08.477Z,99164.09
2023-05-24T10:09:35.904Z,99175.41
2023-05-24T10:12:05.017Z,99175.28
2023-05-24T10:14:38.474Z,99176.50
2023-05-24T10:17:05.919Z,99175.88
2023-05-24T10:19:33.205Z,99183.63
2023-05-24T10:22:00.338Z,99178.41
2023-05-24T10:24:33.954Z,99184.06
2023-05-24T10:27:01.113Z,99184.25
2023-05-24T10:29:30.261Z,99190.38
2023-05-24T10:31:57.114Z,99187.72
2023-05-24T10:34:23.953Z,99183.66
2023-05-24T10:36:51.529Z,99189.31
2023-05-24T10:39:20.333Z,99194.44
2023-05-24T10:41:47.219Z,99198.94
2023-05-24T10:44:15.056Z,99193.75
2023-05-24T10:47:00.656Z,99197.66
2023-05-24T10:49:27.865Z,99200.56
2023-05-24T10:52:00.842Z,99196.88
2023-05-24T10:54:27.659Z,99199.38
2023-05-24T10:56:54.578Z,99192.19
2023-05-24T10:59:25.627Z,99201.97
2023-05-24T11:01:56.881Z,99206.84
2023-05-24T11:04:23.899Z,99206.94
2023-05-24T11:06:58.311Z,99197.84
2023-05-24T11:09:25.294Z,99212.44
2023-05-24T11:11:55.800Z,99209.88
2023-05-24T11:14:27.723Z,99204.06
2023-05-24T11:16:55.295Z,99207.84
2023-05-24T11:19:23.179Z,99205.16
2023-05-24T11:21:50.786Z,99200.69
2023-05-24T11:24:18.298Z,99211.44
2023-05-24T11:26:45.296Z,99216.84
2023-05-24T11:29:18.003Z,99207.97
2023-05-24T11:32:05.230Z,99206.03
2023-05-24T11:34:32.569Z,99218.28
2023-05-24T11:37:00.353Z,99209.81
2023-05-24T11:39:31.480Z,99206.34
2023-05-24T11:41:58.400Z,99211.38
2023-05-24T11:44:26.165Z,99209.84
2023-05-24T11:47:02.660Z,99207.50
2023-05-24T11:49:29.876Z,99206.75
2023-05-24T11:51:57.386Z,99211.66
2023-05-24T11:54:24.711Z,99209.22
2023-05-24T11:56:52.664Z,99223.13
2023-05-24T11:59:23.370Z,99214.03
2023-05-24T12:01:51.724Z,99205.78
2023-05-24T12:04:18.690Z,99201.47
2023-05-24T12:06:46.308Z,99207.59
2023-05-24T12:09:16.956Z,99206.34
2023-05-24T12:11:50.720Z,99201.94
2023-05-24T12:14:18.705Z,99202.31
2023-05-24T12:16:46.076Z,99203.75
2023-05-24T12:19:31.359Z,99198.38
2023-05-24T12:22:00.807Z,99194.53
2023-05-24T12:24:27.879Z,99195.84
2023-05-24T12:27:01.899Z,99193.06
2023-05-24T12:29:40.097Z,99190.75
2023-05-24T12:32:13.075Z,99190.34
2023-05-24T12:34:41.631Z,99197.38
2023-05-24T12:37:08.855Z,99200.13
2023-05-24T12:39:36.237Z,99190.59
2023-05-24T12:42:05.854Z,99198.78
2023-05-24T12:44:34.566Z,99189.84
2023-05-24T12:47:02.361Z,99185.16
2023-05-24T12:49:31.853Z,99178.47
2023-05-24T12:51:58.894Z,99184.66
2023-05-24T12:54:26.637Z,99185.72
2023-05-24T12:56:56.339Z,99175.97
2023-05-24T12:59:24.996Z,99185.09
2023-05-24T13:01:52.679Z,99188.81
2023-05-24T13:04:21.308Z,99198.34
2023-05-24T13:06:48.490Z,99192.16
2023-05-24T13:09:16.045Z,99190.00
2023-05-24T13:11:42.954Z,99197.66
2023-05-24T13:14:11.650Z,99196.63
2023-05-24T13:16:38.526Z,99199.69
2023-05-24T13:19:05.421Z,99199.06
2023-05-24T13:21:32.414Z,99203.66
2023-05-24T13:24:01.182Z,99203.81
2023-05-24T13:26:28.085Z,99206.06
2023-05-24T13:29:22.909Z,99211.25
2023-05-24T13:31:42.077Z,99207.56
2023-05-24T13:34:11.027Z,99205.31
2023-05-24T13:36:41.098Z,99201.34
2023-05-24T13:41:40.107Z,99194.88
2023-05-24T13:44:07.444Z,99197.94
2023-05-24T13:46:34.751Z,99194.81
2023-05-24T13:49:01.941Z,99194.56
2023-05-24T13:51:28.825Z,99195.75
2023-05-24T13:53:56.652Z,99192.31
2023-05-24T13:56:24.983Z,99195.59
2023-05-24T13:58:52.466Z,99193.63
2023-05-24T14:01:19.648Z,99191.41
2023-05-24T14:03:46.733Z,99193.00
2023-05-24T14:06:14.021Z,99202.41
2023-05-24T14:08:40.973Z,99192.41
2023-05-24T14:11:07.770Z,99192.13
2023-05-24T14:16:05.425Z,99200.84
2023-05-24T14:18:33.454Z,99199.97
2023-05-24T14:21:00.225Z,99200.28
2023-05-24T14:23:27.675Z,99195.34
2023-05-24T14:25:54.520Z,99200.72
2023-05-24T14:28:22.334Z,99204.84
2023-05-24T14:30:49.286Z,99201.84
2023-05-24T14:33:16.141Z,99192.88
2023-05-24T14:35:43.162Z,99200.81
2023-05-24T14:38:10.879Z,99196.88
2023-05-24T14:40:39.854Z,99204.03
2023-05-24T14:43:07.307Z,99198.19
2023-05-24T14:45:34.212Z,99203.25
2023-05-24T14:48:01.455Z,99204.09
2023-05-24T14:50:28.317Z,99203.91
2023-05-24T14:52:55.770Z,99204.25
2023-05-24T14:55:22.987Z,99200.06
2023-05-24T14:57:50.015Z,99194.72
2023-05-24T15:00:18.527Z,99195.28
2023-05-24T15:02:52.076Z,99192.34
2023-05-24T15:05:19.392Z,99197.97
2023-05-24T15:07:46.440Z,99201.38
2023-05-24T15:10:13.202Z,99190.25
2023-05-24T15:12:39.981Z,99187.97
2023-05-24T15:15:07.926Z,99188.56
2023-05-24T15:17:34.812Z,99183.28
2023-05-24T15:20:01.869Z,99182.78
2023-05-24T15:22:30.015Z,99182.66
2023-05-24T15:24:56.897Z,99182.56
2023-05-24T15:27:23.680Z,99180.63
2023-05-24T15:29:54.147Z,99184.78
2023-05-24T15:32:21.235Z,99192.25
2023-05-24T15:34:50.346Z,99196.72
2023-05-24T15:37:21.555Z,99187.34
2023-05-24T15:39:49.374Z,99190.72
2023-05-24T15:42:16.540Z,99196.22
2023-05-24T15:44:43.964Z,99194.47
2023-05-24T15:47:10.892Z,99196.41
2023-05-24T15:49:37.854Z,99196.81
2023-05-24T15:52:05.429Z,99197.00
2023-05-24T15:54:32.938Z,99188.31
2023-05-24T15:57:02.061Z,99195.69
2023-05-24T15:59:29.197Z,99200.91
2023-05-24T16:01:56.759Z,99196.72
2023-05-24T16:04:23.918Z,99198.63
2023-05-24T16:06:51.029Z,99194.97
2023-05-24T16:09:22.106Z,99193.97
2023-05-24T16:11:49.221Z,99199.44
2023-05-24T16:14:16.653Z,99199.44
2023-05-24T16:16:46.222Z,99189.09
2023-05-24T16:19:13.155Z,99196.78
2023-05-24T16:21:39.958Z,99196.00
2023-05-24T16:24:08.044Z,99198.00
2023-05-24T16:26:35.249Z,99198.63
2023-05-24T16:29:02.087Z,99196.63
2023-05-24T16:31:33.025Z,99202.09
2023-05-24T16:34:01.109Z,99204.84
2023-05-24T16:36:29.034Z,99203.41
2023-05-24T16:38:56.136Z,99203.59
2023-05-24T16:41:25.725Z,99199.03
2023-05-24T16:43:52.684Z,99190.50
2023-05-24T16:46:19.767Z,99200.44
2023-05-24T16:48:46.788Z,99203.50
2023-05-24T16:51:14.152Z,99205.19
2023-05-24T16:53:41.498Z,99205.50
2023-05-24T16:56:08.653Z,99209.88
2023-05-24T16:58:35.850Z,99217.56
2023-05-24T17:01:02.896Z,99219.28
2023-05-24T17:03:32.338Z,99223.53
2023-05-24T17:06:04.025Z,99226.16
2023-05-24T17:08:35.401Z,99231.91
2023-05-24T17:11:05.652Z,99232.22
2023-05-24T17:13:32.785Z,99236.38
2023-05-24T17:16:00.628Z,99237.28
2023-05-24T17:18:30.426Z,99229.72
2023-05-24T17:20:57.883Z,99234.22
2023-05-24T17:23:25.705Z,99238.19
2023-05-24T17:25:53.067Z,99237.13
2023-05-24T17:28:19.918Z,99239.13
2023-05-24T17:30:47.562Z,99242.75
2023-05-24T17:33:20.484Z,99244.97
2023-05-24T17:35:47.318Z,99249.63
2023-05-24T17:38:14.365Z,99247.44
2023-05-24T17:40:41.608Z,99250.44
2023-05-24T17:43:08.575Z,99254.31
2023-05-24T17:45:35.650Z,99258.13
2023-05-24T17:48:03.149Z,99257.03
2023-05-24T17:50:30.149Z,99265.25
2023-05-24T17:52:58.543Z,99266.88
2023-05-24T17:55:27.099Z,99256.00
2023-05-24T17:57:53.854Z,99258.88
2023-05-24T18:00:20.817Z,99263.09
2023-05-24T18:02:47.685Z,99263.38
2023-05-24T18:05:16.797Z,99271.56
2023-05-24T18:07:43.939Z,99275.69
2023-05-24T18:10:11.340Z,99276.03
2023-05-24T18:12:38.816Z,99276.63
2023-05-24T18:15:07.078Z,99267.34
2023-05-24T18:17:35.855Z,99272.59
2023-05-24T18:20:02.832Z,99271.28
2023-05-24T18:22:30.228Z,99274.88
2023-05-24T18:25:34.187Z,99277.69
2023-05-24T18:28:20.318Z,99279.09
2023-05-24T18:30:47.180Z,99284.63
2023-05-24T18:33:14.113Z,99278.16
2023-05-24T18:35:41.270Z,99282.63
2023-05-24T18:38:08.156Z,99287.06
2023-05-24T18:40:35.045Z,99283.84
2023-05-24T18:43:02.329Z,99279.03
2023-05-24T18:45:29.116Z,99276.38
2023-05-24T18:48:14.532Z,99277.00
2023-05-24T18:50:41.603Z,99279.53
2023-05-24T18:53:09.694Z,99279.84
2023-05-24T18:55:36.605Z,99285.66
2023-05-24T18:58:03.740Z,99294.44
2023-05-24T19:00:30.791Z,99291.72
2023-05-24T19:02:57.872Z,99288.50
2023-05-24T19:05:44.162Z,99283.38
2023-05-24T19:08:11.485Z,99291.06
2023-05-24T19:10:38.282Z,99284.03
2023-05-24T19:13:06.009Z,99284.63
2023-05-24T19:15:34.814Z,99285.47
2023-05-24T19:18:01.982Z,99282.75
2023-05-24T19:20:28.980Z,99283.81
2023-05-24T19:22:56.513Z,99284.97
2023-05-24T19:25:23.283Z,99283.91
2023-05-24T19:27:59.247Z,99274.72
2023-05-24T19:30:27.552Z,99272.09
2023-05-24T19:33:13.134Z,99266.91
2023-05-24T19:35:40.029Z,99266.13
2023-05-24T19:38:07.020Z,99261.22
2023-05-24T19:40:34.012Z,99258.50
2023-05-24T19:43:01.081Z,99265.09
2023-05-24T19:45:27.912Z,99266.47
2023-05-24T19:48:13.421Z,99261.31
2023-05-24T19:50:40.759Z,99265.13
2023-05-24T19:53:07.692Z,99276.84
2023-05-24T19:55:53.383Z,99272.78
2023-05-24T19:58:21.314Z,99267.59
2023-05-24T20:00:48.628Z,99279.34
2023-05-24T20:03:15.965Z,99275.78
2023-05-24T20:05:43.142Z,99274.97
2023-05-24T20:08:10.156Z,99276.09
2023-05-24T20:10:38.981Z,99274.72
2023-05-24T20:13:06.063Z,99278.00
2023-05-24T20:15:32.839Z,99285.88
2023-05-24T20:17:59.814Z,99274.44
2023-05-24T20:20:26.777Z,99276.56
2023-05-24T20:22:54.055Z,99270.59
2023-05-24T20:25:22.962Z,99265.97
2023-05-24T20:27:49.724Z,99262.97
2023-05-24T20:30:17.531Z,99265.69
2023-05-24T20:32:44.779Z,99270.28
2023-05-24T20:35:11.608Z,99274.91
2023-05-24T20:37:38.608Z,99271.09
2023-05-24T20:40:05.758Z,99277.06
2023-05-24T20:42:32.949Z,99279.22
2023-05-24T20:44:59.786Z,99284.91
2023-05-24T20:47:28.628Z,99281.91
2023-05-24T20:49:56.966Z,99277.81
2023-05-24T20:52:23.907Z,99279.72
2023-05-24T20:54:53.545Z,99278.34
2023-05-24T20:57:20.286Z,99274.53
2023-05-24T20:59:47.042Z,99275.63
2023-05-24T21:02:14.056Z,99276.44
2023-05-24T21:04:41.143Z,99281.31
2023-05-24T21:07:08.167Z,99272.88
2023-05-24T21:09:35.078Z,99275.03
2023-05-24T21:12:02.491Z,99278.03
2023-05-24T21:14:30.275Z,99272.06
2023-05-24T21:17:06.279Z,99271.75
2023-05-24T21:19:33.127Z,99270.13
2023-05-24T21:21:59.869Z,99277.47
2023-05-24T21:24:26.813Z,99276.91
2023-05-24T21:26:54.254Z,99273.88
2023-05-24T21:29:21.178Z,99269.81
2023-05-24T21:31:48.375Z,99267.09
2023-05-24T21:34:15.544Z,99260.28
2023-05-24T21:36:42.320Z,99258.91
2023-05-24T21:39:09.920Z,99237.16
2023-05-24T21:41:39.524Z,99235.78
2023-05-24T21:44:08.262Z,99239.59
2023-05-24T21:46:36.415Z,99239.84
2023-05-24T21:49:03.504Z,99221.34
2023-05-24T21:51:30.372Z,99218.06
2023-05-24T21:53:57.370Z,99215.31
2023-05-24T21:56:24.157Z,99221.56
2023-05-24T21:58:51.032Z,99223.72
2023-05-24T22:01:17.851Z,99217.97
2023-05-24T22:03:44.893Z,99222.31
2023-05-24T22:06:11.729Z,99220.13
2023-05-24T22:08:38.886Z,99217.41
2023-05-24T22:11:05.700Z,99217.94
2023-05-24T22:13:32.690Z,99228.22
2023-05-24T22:15:59.609Z,99228.19
2023-05-24T22:18:28.362Z,99236.34
2023-05-24T22:21:01.215Z,99236.88
2023-05-24T22:23:28.395Z,99231.16
2023-05-24T22:26:01.149Z,99233.56
2023-05-24T22:28:29.065Z,99242.22
2023-05-24T22:30:57.520Z,99246.81
2023-05-24T22:33:24.462Z,99244.88
2023-05-24T22:35:51.548Z,99245.69
2023-05-24T22:38:18.414Z,99245.69
2023-05-24T22:40:46.796Z,99240.00
2023-05-24T22:43:14.179Z,99241.63
2023-05-24T22:45:41.038Z,99246.25
2023-05-24T22:48:08.011Z,99251.94
2023-05-24T22:50:34.801Z,99257.06
2023-05-24T22:53:02.771Z,99257.03
2023-05-24T22:55:29.505Z,99256.72
2023-05-24T22:57:56.220Z,99256.72
2023-05-24T23:00:23.071Z,99254.03
2023-05-24T23:02:49.947Z,99259.13
2023-05-24T23:05:16.833Z,99265.63
2023-05-24T23:07:43.840Z,99267.78
2023-05-24T23:10:10.668Z,99266.41
2023-05-24T23:12:37.622Z,99263.19
2023-05-24T23:15:04.878Z,99258.88
2023-05-24T23:17:32.021Z,99255.81
2023-05-24T23:19:59.373Z,99259.28
2023-05-24T23:22:26.424Z,99258.97
2023-05-24T23:24:53.321Z,99259.22
2023-05-24T23:27:20.177Z,99257.56
2023-05-24T23:29:47.000Z,99256.81
2023-05-24T23:32:13.845Z,99262.59
2023-05-24T23:34:40.918Z,99254.31
2023-05-24T23:37:07.699Z,99254.91
2023-05-24T23:39:34.790Z,99253.56
2023-05-24T23:42:02.651Z,99259.84
2023-05-24T23:44:29.608Z,99253.94
2023-05-24T23:46:56.797Z,99248.53
2023-05-24T23:49:24.168Z,99250.19
2023-05-24T23:51:51.028Z,99251.00
2023-05-24T23:54:19.368Z,99249.63
2023-05-24T23:56:46.453Z,99255.84
2023-05-24T23:59:13.317Z,99246.31
